createdAt,value
2023-02-02T00:02:03.112Z,8.05
2023-02-02T00:04:33.276Z,23.77
2023-02-02T00:07:01.416Z,15.35
2023-02-02T00:09:29.910Z,12.50
2023-02-02T00:11:57.554Z,23.02
2023-02-02T00:14:25.227Z,7.72
2023-02-02T00:16:56.793Z,11.23
2023-02-02T00:19:27.411Z,22.50
2023-02-02T00:21:55.120Z,12.45
2023-02-02T00:24:22.785Z,11.45
2023-02-02T00:26:52.566Z,9.88
2023-02-02T00:29:25.756Z,12.50
2023-02-02T00:31:53.158Z,17.90
2023-02-02T00:34:20.498Z,19.05
2023-02-02T00:36:48.260Z,21.58
2023-02-02T00:39:18.774Z,10.90
2023-02-02T00:41:46.412Z,15.90
2023-02-02T00:44:32.234Z,10.15
2023-02-02T00:46:59.964Z,15.15
2023-02-02T00:49:26.719Z,14.52
2023-02-02T00:51:53.448Z,8.73
2023-02-02T00:54:20.191Z,13.68
2023-02-02T00:56:47.114Z,16.00
2023-02-02T00:59:14.027Z,14.35
2023-02-02T01:01:40.869Z,15.10
2023-02-02T01:04:07.664Z,18.25
2023-02-02T01:06:34.817Z,15.48
2023-02-02T01:09:02.678Z,19.90
2023-02-02T01:11:33.714Z,10.77
2023-02-02T01:14:00.543Z,18.13
2023-02-02T01:16:27.353Z,14.43
2023-02-02T01:18:54.375Z,19.58
2023-02-02T01:21:21.354Z,20.50
2023-02-02T01:23:48.681Z,22.13
2023-02-02T01:26:16.396Z,14.00
2023-02-02T01:28:43.643Z,19.25
2023-02-02T01:31:16.794Z,24.15
2023-02-02T01:33:45.107Z,11.52
2023-02-02T01:36:15.494Z,7.55
2023-02-02T01:38:42.531Z,16.40
2023-02-02T01:41:13.360Z,12.85
2023-02-02T01:43:43.165Z,17.85
2023-02-02T01:46:19.043Z,16.90
2023-02-02T01:48:55.267Z,27.90
2023-02-02T01:51:26.093Z,32.03
2023-02-02T01:53:56.249Z,11.20
2023-02-02T01:56:35.043Z,20.73
2023-02-02T01:59:02.505Z,21.30
2023-02-02T02:01:29.307Z,20.65
2023-02-02T02:03:56.944Z,19.98
2023-02-02T02:06:25.921Z,15.27
2023-02-02T02:09:00.626Z,17.17
2023-02-02T02:11:27.774Z,22.30
2023-02-02T02:14:15.671Z,26.38
2023-02-02T02:16:46.902Z,9.88
2023-02-02T02:19:28.803Z,21.52
2023-02-02T02:22:37.386Z,20.85
2023-02-02T02:25:30.947Z,13.25
2023-02-02T02:28:30.685Z,13.68
2023-02-02T02:31:07.103Z,17.63
2023-02-02T02:34:08.743Z,16.80
2023-02-02T02:36:58.766Z,8.82
2023-02-02T02:39:28.908Z,12.55
2023-02-02T02:42:00.295Z,9.73
2023-02-02T02:44:29.220Z,19.88
2023-02-02T02:46:57.087Z,21.70
2023-02-02T02:49:23.942Z,18.63
2023-02-02T02:51:55.308Z,17.20
2023-02-02T02:54:35.521Z,15.00
2023-02-02T02:57:13.659Z,20.45
2023-02-02T03:00:00.639Z,11.20
2023-02-02T03:02:51.090Z,22.67
2023-02-02T03:05:41.568Z,10.68
2023-02-02T03:08:18.658Z,20.35
2023-02-02T03:10:49.624Z,11.43
2023-02-02T03:13:17.246Z,7.10
2023-02-02T03:15:45.689Z,18.27
2023-02-02T03:18:15.328Z,20.98
2023-02-02T03:20:44.934Z,12.18
2023-02-02T03:23:13.886Z,20.65
2023-02-02T03:25:41.233Z,13.57
2023-02-02T03:28:07.959Z,11.00
2023-02-02T03:30:34.885Z,20.23
2023-02-02T03:33:01.614Z,12.13
2023-02-02T03:35:28.390Z,21.38
2023-02-02T03:37:55.127Z,18.58
2023-02-02T03:40:21.838Z,14.13
2023-02-02T03:42:49.110Z,19.45
2023-02-02T03:45:16.017Z,24.15
2023-02-02T03:47:42.672Z,16.90
2023-02-02T03:50:10.097Z,13.48
2023-02-02T03:52:36.886Z,15.15
2023-02-02T03:55:03.888Z,15.00
2023-02-02T03:57:30.500Z,12.35
2023-02-02T03:59:57.185Z,15.80
2023-02-02T04:02:23.971Z,22.02
2023-02-02T04:04:50.775Z,14.10
2023-02-02T04:07:17.579Z,15.10
2023-02-02T04:09:44.385Z,9.43
2023-02-02T04:12:11.093Z,21.67
2023-02-02T04:14:37.777Z,12.75
2023-02-02T04:17:05.151Z,15.45
2023-02-02T04:19:32.083Z,12.73
2023-02-02T04:21:58.789Z,10.25
2023-02-02T04:24:25.581Z,19.60
2023-02-02T04:26:52.546Z,17.92
2023-02-02T04:29:19.334Z,30.98
2023-02-02T04:31:46.030Z,20.80
2023-02-02T04:34:12.828Z,16.92
2023-02-02T04:36:39.561Z,16.60
2023-02-02T04:39:06.223Z,12.32
2023-02-02T04:41:33.054Z,7.93
2023-02-02T04:43:59.714Z,11.45
2023-02-02T04:46:28.031Z,15.85
2023-02-02T04:48:54.783Z,13.40
2023-02-02T04:51:22.112Z,12.40
2023-02-02T04:53:48.819Z,15.25
2023-02-02T04:56:18.543Z,13.75
2023-02-02T04:58:46.075Z,28.80
2023-02-02T05:01:18.389Z,18.23
2023-02-02T05:03:45.883Z,11.68
2023-02-02T05:06:15.557Z,13.13
2023-02-02T05:08:45.807Z,25.88
2023-02-02T05:11:14.936Z,11.82
2023-02-02T05:13:49.094Z,17.95
2023-02-02T05:16:16.081Z,16.60
2023-02-02T05:18:43.737Z,16.05
2023-02-02T05:21:10.407Z,9.73
2023-02-02T05:23:37.373Z,14.27
2023-02-02T05:26:04.649Z,10.57
2023-02-02T05:28:31.565Z,18.73
2023-02-02T05:30:58.337Z,12.10
2023-02-02T05:33:25.326Z,15.52
2023-02-02T05:35:52.848Z,20.45
2023-02-02T05:38:19.592Z,29.23
2023-02-02T05:40:48.887Z,20.08
2023-02-02T05:43:15.632Z,18.92
2023-02-02T05:45:42.756Z,12.35
2023-02-02T05:48:14.055Z,23.42
2023-02-02T05:50:44.524Z,16.08
2023-02-02T05:53:14.017Z,10.38
2023-02-02T05:55:40.840Z,17.83
2023-02-02T05:58:07.549Z,15.93
2023-02-02T06:00:34.277Z,26.23
2023-02-02T06:03:01.249Z,15.55
2023-02-02T06:05:27.904Z,20.70
2023-02-02T06:07:54.558Z,14.13
2023-02-02T06:10:21.204Z,15.10
2023-02-02T06:12:47.862Z,22.65
2023-02-02T06:15:14.717Z,26.52
2023-02-02T06:17:41.697Z,15.75
2023-02-02T06:20:08.918Z,21.77
2023-02-02T06:22:35.637Z,16.42
2023-02-02T06:25:05.453Z,23.23
2023-02-02T06:27:32.350Z,17.60
2023-02-02T06:29:59.244Z,17.95
2023-02-02T06:32:28.300Z,9.80
2023-02-02T06:34:55.226Z,13.07
2023-02-02T06:37:22.052Z,7.68
2023-02-02T06:39:48.762Z,9.20
2023-02-02T06:42:21.205Z,10.80
2023-02-02T06:44:48.645Z,13.82
2023-02-02T06:47:15.352Z,5.88
2023-02-02T06:49:42.022Z,7.50
2023-02-02T06:52:08.706Z,14.48
2023-02-02T06:54:35.423Z,9.00
2023-02-02T06:57:02.140Z,14.18
2023-02-02T06:59:28.944Z,17.95
2023-02-02T07:01:55.740Z,15.15
2023-02-02T07:04:22.557Z,11.43
2023-02-02T07:06:49.245Z,9.55
2023-02-02T07:09:15.922Z,9.80
2023-02-02T07:11:45.559Z,8.15
2023-02-02T07:14:12.718Z,6.78
2023-02-02T07:16:39.385Z,11.75
2023-02-02T07:19:06.109Z,8.68
2023-02-02T07:21:36.337Z,5.15
2023-02-02T07:24:04.682Z,7.80
2023-02-02T07:26:31.474Z,6.22
2023-02-02T07:28:58.335Z,6.32
2023-02-02T07:31:26.860Z,13.48
2023-02-02T07:33:54.499Z,7.85
2023-02-02T07:36:23.970Z,6.10
2023-02-02T07:38:54.333Z,6.32
2023-02-02T07:41:21.758Z,10.60
2023-02-02T07:43:49.425Z,14.68
2023-02-02T07:46:17.521Z,9.27
2023-02-02T07:48:44.371Z,4.28
2023-02-02T07:51:16.383Z,8.50
2023-02-02T07:56:20.436Z,7.63
2023-02-02T07:58:47.594Z,9.85
2023-02-02T08:01:15.967Z,3.50
2023-02-02T08:03:44.120Z,9.60
2023-02-02T08:06:26.426Z,13.30
2023-02-02T08:11:21.958Z,9.25
2023-02-02T08:13:53.168Z,6.05
2023-02-02T08:16:21.100Z,3.47
2023-02-02T08:18:48.681Z,7.60
2023-02-02T08:21:17.508Z,16.00
2023-02-02T08:23:45.607Z,6.28
2023-02-02T08:26:31.336Z,6.28
2023-02-02T08:29:01.318Z,9.70
2023-02-02T08:31:31.409Z,12.13
2023-02-02T08:33:58.608Z,10.80
2023-02-02T08:36:27.302Z,8.52
2023-02-02T08:38:54.436Z,8.68
2023-02-02T08:41:25.144Z,3.00
2023-02-02T08:43:52.187Z,5.68
2023-02-02T08:46:21.069Z,10.63
2023-02-02T08:48:48.429Z,8.38
2023-02-02T08:51:18.441Z,11.05
2023-02-02T08:53:46.457Z,9.15
2023-02-02T08:56:19.149Z,8.27
2023-02-02T08:58:58.701Z,9.13
2023-02-02T09:01:30.710Z,15.43
2023-02-02T09:04:06.002Z,11.27
2023-02-02T09:06:35.066Z,11.60
2023-02-02T09:09:02.995Z,8.98
2023-02-02T09:11:29.954Z,9.15
2023-02-02T09:13:58.690Z,8.18
2023-02-02T09:16:26.932Z,11.25
2023-02-02T09:18:55.528Z,11.05
2023-02-02T09:21:22.317Z,5.93
2023-02-02T09:23:50.575Z,11.55
2023-02-02T09:26:26.153Z,6.10
2023-02-02T09:29:04.189Z,14.25
2023-02-02T09:31:34.120Z,6.85
2023-02-02T09:34:03.060Z,9.77
2023-02-02T09:36:30.278Z,7.13
2023-02-02T09:38:57.062Z,14.88
2023-02-02T09:41:51.310Z,13.52
2023-02-02T09:44:46.621Z,12.18
2023-02-02T09:47:41.237Z,10.60
2023-02-02T09:50:39.753Z,7.30
2023-02-02T09:53:14.639Z,5.22
2023-02-02T09:55:48.657Z,8.80
2023-02-02T09:58:53.007Z,13.23
2023-02-02T10:01:24.787Z,5.35
2023-02-02T10:04:04.358Z,13.40
2023-02-02T10:06:40.064Z,8.52
2023-02-02T10:09:31.119Z,3.42
2023-02-02T10:12:21.119Z,6.43
2023-02-02T10:15:13.148Z,12.18
2023-02-02T10:17:55.689Z,19.67
2023-02-02T10:20:46.035Z,11.07
2023-02-02T10:23:40.615Z,8.52
2023-02-02T10:26:21.189Z,9.60
2023-02-02T10:29:09.265Z,10.40
2023-02-02T10:31:54.846Z,8.93
2023-02-02T10:34:55.596Z,7.18
2023-02-02T10:37:39.945Z,10.63
2023-02-02T10:40:30.348Z,3.15
2023-02-02T10:43:31.099Z,4.90
2023-02-02T10:45:59.607Z,7.05
2023-02-02T10:48:35.503Z,9.15
2023-02-02T10:51:13.054Z,17.58
2023-02-02T10:53:43.577Z,9.52
2023-02-02T10:56:13.735Z,8.65
2023-02-02T10:58:51.895Z,8.00
2023-02-02T11:01:22.737Z,7.03
2023-02-02T11:04:10.131Z,7.88
2023-02-02T11:06:49.459Z,5.75
2023-02-02T11:09:30.428Z,12.57
2023-02-02T11:12:20.534Z,6.68
2023-02-02T11:14:53.663Z,5.47
2023-02-02T11:17:23.369Z,4.57
2023-02-02T11:19:50.876Z,8.55
2023-02-02T11:22:28.577Z,8.77
2023-02-02T11:24:57.119Z,4.50
2023-02-02T11:27:28.000Z,8.63
2023-02-02T11:29:59.264Z,12.98
2023-02-02T11:32:28.751Z,14.27
2023-02-02T11:35:08.080Z,12.75
2023-02-02T11:37:36.632Z,7.15
2023-02-02T11:40:24.452Z,3.05
2023-02-02T11:42:52.714Z,4.25
2023-02-02T11:45:29.121Z,11.05
2023-02-02T11:48:20.525Z,11.70
2023-02-02T11:50:55.840Z,7.63
2023-02-02T11:53:26.958Z,7.53
2023-02-02T11:55:55.017Z,10.37
2023-02-02T11:58:27.197Z,12.48
2023-02-02T12:01:03.872Z,5.95
2023-02-02T12:03:40.130Z,6.47
2023-02-02T12:06:25.021Z,8.38
2023-02-02T12:08:58.242Z,10.75
2023-02-02T12:12:05.980Z,12.55
2023-02-02T12:14:49.508Z,6.30
2023-02-02T12:17:38.802Z,6.75
2023-02-02T12:20:34.990Z,3.85
2023-02-02T12:23:31.724Z,7.00
2023-02-02T12:26:04.710Z,10.73
2023-02-02T12:29:00.478Z,11.07
2023-02-02T12:31:30.471Z,10.13
2023-02-02T12:34:06.500Z,7.25
2023-02-02T12:36:47.957Z,10.73
2023-02-02T12:39:20.734Z,3.85
2023-02-02T12:42:21.822Z,14.57
2023-02-02T12:45:10.761Z,4.68
2023-02-02T12:47:45.368Z,14.40
2023-02-02T12:50:36.255Z,11.80
2023-02-02T12:53:28.953Z,8.95
2023-02-02T12:56:13.371Z,10.48
2023-02-02T12:58:52.145Z,7.35
2023-02-02T13:01:35.068Z,14.30
2023-02-02T13:04:13.948Z,12.02
2023-02-02T13:07:06.920Z,10.57
2023-02-02T13:09:43.441Z,11.43
2023-02-02T13:12:13.198Z,13.07
2023-02-02T13:14:54.873Z,9.52
2023-02-02T13:17:42.754Z,10.48
2023-02-02T13:20:39.930Z,11.30
2023-02-02T13:23:19.034Z,16.17
2023-02-02T13:26:01.511Z,11.90
2023-02-02T13:28:44.887Z,10.63
2023-02-02T13:31:42.536Z,13.77
2023-02-02T13:34:18.930Z,6.28
2023-02-02T13:36:54.627Z,10.07
2023-02-02T13:39:28.426Z,6.55
2023-02-02T13:41:56.021Z,11.20
2023-02-02T13:44:32.682Z,10.80
2023-02-02T13:47:16.888Z,11.05
2023-02-02T13:49:50.930Z,7.53
2023-02-02T13:52:56.269Z,15.65
2023-02-02T13:55:49.347Z,5.40
2023-02-02T13:59:01.222Z,11.77
2023-02-02T14:01:30.260Z,10.77
2023-02-02T14:03:58.213Z,14.48
2023-02-02T14:06:26.928Z,13.57
2023-02-02T14:09:01.283Z,11.85
2023-02-02T14:11:45.018Z,16.25
2023-02-02T14:14:33.687Z,10.80
2023-02-02T14:17:04.829Z,13.52
2023-02-02T14:19:34.586Z,9.15
2023-02-02T14:22:10.371Z,14.68
2023-02-02T14:24:38.968Z,8.65
2023-02-02T14:27:28.914Z,15.07
2023-02-02T14:29:55.632Z,8.43
2023-02-02T14:32:25.424Z,11.82
2023-02-02T14:34:55.232Z,6.57
2023-02-02T14:37:24.789Z,8.10
2023-02-02T14:40:06.931Z,5.75
2023-02-02T14:43:23.177Z,7.88
2023-02-02T14:46:12.578Z,12.55
2023-02-02T14:48:48.029Z,11.48
2023-02-02T14:51:21.229Z,15.00
2023-02-02T14:54:02.577Z,6.72
2023-02-02T14:56:51.367Z,7.87
2023-02-02T14:59:32.928Z,14.13
2023-02-02T15:02:17.157Z,13.95
2023-02-02T15:04:47.741Z,8.77
2023-02-02T15:07:23.515Z,32.08
2023-02-02T15:09:51.875Z,7.28
2023-02-02T15:12:24.635Z,11.10
2023-02-02T15:15:10.631Z,12.75
2023-02-02T15:18:02.706Z,12.65
2023-02-02T15:20:42.912Z,11.20
2023-02-02T15:23:34.131Z,6.40
2023-02-02T15:26:09.344Z,12.77
2023-02-02T15:29:08.241Z,7.80
2023-02-02T15:31:43.501Z,6.70
2023-02-02T15:34:29.397Z,9.63
2023-02-02T15:37:00.017Z,11.13
2023-02-02T15:39:44.676Z,7.60
2023-02-02T15:42:53.103Z,15.40
2023-02-02T15:45:33.219Z,13.93
2023-02-02T15:48:01.575Z,10.80
2023-02-02T15:50:28.397Z,9.88
2023-02-02T15:52:55.736Z,9.85
2023-02-02T15:55:33.500Z,12.38
2023-02-02T15:58:01.301Z,10.30
2023-02-02T16:00:33.417Z,14.30
2023-02-02T16:05:44.058Z,5.78
2023-02-02T16:08:19.618Z,11.80
2023-02-02T16:10:49.428Z,14.75
2023-02-02T16:13:27.440Z,9.00
2023-02-02T16:15:59.406Z,5.63
2023-02-02T16:18:26.702Z,8.43
2023-02-02T16:20:54.973Z,6.07
2023-02-02T16:23:32.783Z,7.90
2023-02-02T16:26:05.549Z,11.75
2023-02-02T16:28:33.141Z,9.32
2023-02-02T16:31:01.670Z,8.85
2023-02-02T16:33:29.909Z,10.48
2023-02-02T16:35:57.705Z,11.68
2023-02-02T16:38:35.038Z,84.75
2023-02-02T16:41:13.802Z,17.80
2023-02-02T16:43:42.653Z,10.88
2023-02-02T16:46:12.760Z,15.20
2023-02-02T16:48:45.579Z,9.93
2023-02-02T16:51:18.884Z,8.80
2023-02-02T16:54:07.742Z,8.50
2023-02-02T16:56:43.546Z,8.00
2023-02-02T16:59:29.385Z,11.05
2023-02-02T17:02:01.959Z,16.65
2023-02-02T17:04:34.010Z,13.73
2023-02-02T17:07:14.348Z,11.65
2023-02-02T17:09:42.341Z,10.27
2023-02-02T17:12:35.377Z,11.55
2023-02-02T17:15:17.500Z,12.43
2023-02-02T17:20:13.073Z,11.73
2023-02-02T17:22:42.927Z,17.05
2023-02-02T17:25:17.072Z,13.85
2023-02-02T17:27:45.144Z,14.48
2023-02-02T17:30:18.107Z,12.27
2023-02-02T17:32:44.960Z,16.92
2023-02-02T17:35:24.169Z,17.48
2023-02-02T17:37:53.062Z,18.20
2023-02-02T17:40:24.007Z,15.10
2023-02-02T17:42:52.993Z,23.33
2023-02-02T17:45:33.940Z,16.27
2023-02-02T17:48:01.595Z,15.30
2023-02-02T17:50:29.327Z,15.52
2023-02-02T17:52:56.028Z,13.68
2023-02-02T17:55:27.243Z,13.70
2023-02-02T17:57:54.420Z,16.58
2023-02-02T18:00:24.301Z,12.45
2023-02-02T18:02:56.743Z,14.93
2023-02-02T18:05:23.946Z,17.35
2023-02-02T18:07:50.765Z,31.10
2023-02-02T18:10:19.210Z,22.73
2023-02-02T18:12:45.911Z,16.77
2023-02-02T18:15:13.707Z,13.52
2023-02-02T18:17:41.030Z,12.13
2023-02-02T18:20:09.016Z,14.10
2023-02-02T18:22:35.817Z,17.15
2023-02-02T18:25:04.195Z,16.42
2023-02-02T18:27:31.023Z,13.25
2023-02-02T18:29:57.836Z,17.65
2023-02-02T18:32:25.026Z,13.45
2023-02-02T18:34:55.950Z,14.20
2023-02-02T18:37:25.623Z,15.75
2023-02-02T18:39:53.873Z,14.80
2023-02-02T18:42:20.820Z,18.77
2023-02-02T18:44:47.474Z,17.38
2023-02-02T18:47:14.165Z,17.88
2023-02-02T18:49:40.797Z,17.40
2023-02-02T18:52:07.777Z,14.52
2023-02-02T18:54:35.698Z,16.73
2023-02-02T18:57:02.442Z,13.43
2023-02-02T18:59:29.638Z,13.55
2023-02-02T19:01:56.340Z,14.40
2023-02-02T19:04:23.012Z,12.60
2023-02-02T19:07:08.398Z,16.00
2023-02-02T19:09:35.056Z,16.58
2023-02-02T19:12:02.174Z,15.55
2023-02-02T19:14:33.198Z,11.02
2023-02-02T19:17:12.003Z,12.45
2023-02-02T19:19:40.503Z,15.65
2023-02-02T19:22:18.212Z,10.73
2023-02-02T19:24:44.942Z,15.63
2023-02-02T19:27:20.294Z,12.98
2023-02-02T19:29:50.650Z,13.95
2023-02-02T19:32:21.855Z,14.20
2023-02-02T19:34:51.892Z,36.58
2023-02-02T19:37:25.688Z,24.63
2023-02-02T19:40:14.235Z,18.48
2023-02-02T19:42:47.190Z,17.67
2023-02-02T19:47:54.845Z,15.82
2023-02-02T19:50:27.694Z,19.77
2023-02-02T19:52:55.636Z,17.95
2023-02-02T19:55:28.317Z,20.30
2023-02-02T19:58:20.156Z,18.38
2023-02-02T20:00:50.656Z,20.65
2023-02-02T20:03:27.768Z,18.98
2023-02-02T20:05:56.910Z,18.77
2023-02-02T20:08:32.055Z,18.90
2023-02-02T20:11:01.384Z,19.42
2023-02-02T20:13:44.879Z,21.67
2023-02-02T20:16:23.804Z,14.57
2023-02-02T20:18:57.702Z,18.02
2023-02-02T20:21:38.140Z,16.50
2023-02-02T20:24:17.202Z,18.88
2023-02-02T20:26:44.839Z,18.77
2023-02-02T20:29:37.062Z,23.50
2023-02-02T20:32:08.215Z,19.70
2023-02-02T20:34:43.357Z,17.10
2023-02-02T20:37:12.866Z,17.10
2023-02-02T20:40:01.647Z,19.40
2023-02-02T20:42:30.198Z,17.08
2023-02-02T20:44:58.072Z,16.08
2023-02-02T20:47:24.853Z,16.25
2023-02-02T20:49:51.635Z,15.13
2023-02-02T20:52:23.523Z,17.05
2023-02-02T20:57:17.930Z,17.45
2023-02-02T20:59:44.720Z,16.15
2023-02-02T21:02:18.824Z,19.48
2023-02-02T21:04:48.199Z,13.82
2023-02-02T21:07:23.068Z,17.20
2023-02-02T21:09:50.877Z,16.10
2023-02-02T21:12:18.295Z,13.57
2023-02-02T21:14:46.089Z,19.90
2023-02-02T21:17:15.580Z,15.60
2023-02-02T21:19:43.447Z,14.77
2023-02-02T21:22:10.773Z,16.67
2023-02-02T21:24:37.941Z,22.73
2023-02-02T21:27:04.845Z,18.38
2023-02-02T21:29:32.906Z,18.58
2023-02-02T21:32:02.770Z,20.30
2023-02-02T21:34:30.592Z,20.02
2023-02-02T21:36:58.206Z,18.45
2023-02-02T21:39:34.006Z,19.25
2023-02-02T21:42:11.382Z,20.05
2023-02-02T21:44:47.217Z,25.58
2023-02-02T21:47:26.243Z,29.50
2023-02-02T21:49:58.820Z,25.30
2023-02-02T21:52:29.643Z,29.02
2023-02-02T21:54:56.694Z,31.40
2023-02-02T21:57:36.378Z,30.98
2023-02-02T22:00:33.752Z,25.55
2023-02-02T22:03:00.772Z,36.35
2023-02-02T22:05:37.203Z,36.42
2023-02-02T22:08:20.767Z,25.27
2023-02-02T22:10:49.026Z,30.45
2023-02-02T22:13:23.759Z,29.65
2023-02-02T22:15:53.055Z,30.33
2023-02-02T22:18:24.982Z,30.08
2023-02-02T22:20:54.359Z,35.38
2023-02-02T22:23:23.339Z,33.50
2023-02-02T22:25:55.362Z,35.35
2023-02-02T22:28:25.916Z,32.20
2023-02-02T22:30:54.185Z,27.85
2023-02-02T22:33:21.902Z,36.47
2023-02-02T22:35:48.863Z,34.50
2023-02-02T22:38:21.061Z,34.00
2023-02-02T22:40:49.195Z,34.13
2023-02-02T22:43:16.820Z,39.72
2023-02-02T22:45:44.526Z,39.13
2023-02-02T22:48:12.811Z,37.05
2023-02-02T22:50:39.947Z,35.78
2023-02-02T22:53:06.678Z,36.25
2023-02-02T22:55:33.868Z,40.35
2023-02-02T22:58:00.557Z,35.42
2023-02-02T23:00:36.124Z,40.47
2023-02-02T23:03:02.919Z,37.80
2023-02-02T23:05:29.841Z,41.30
2023-02-02T23:07:56.723Z,40.90
2023-02-02T23:10:26.357Z,36.28
2023-02-02T23:12:55.176Z,39.85
2023-02-02T23:15:22.042Z,42.80
2023-02-02T23:17:49.101Z,43.95
2023-02-02T23:20:16.657Z,38.90
2023-02-02T23:22:43.495Z,39.78
2023-02-02T23:25:10.743Z,37.75
2023-02-02T23:27:37.610Z,38.15
2023-02-02T23:30:07.396Z,36.92
2023-02-02T23:32:34.335Z,35.67
2023-02-02T23:35:01.036Z,38.30
2023-02-02T23:37:27.689Z,43.28
2023-02-02T23:39:54.402Z,40.00
2023-02-02T23:42:21.166Z,44.30
2023-02-02T23:44:48.000Z,41.08
2023-02-02T23:47:14.733Z,34.85
2023-02-02T23:49:41.459Z,40.67
2023-02-02T23:52:08.149Z,37.17
2023-02-02T23:54:35.800Z,38.58
2023-02-02T23:57:02.777Z,43.22
2023-02-02T23:59:29.523Z,36.50
